createdAt,value
2019-03-13T00:02:23.964Z,58.45
2019-03-13T00:04:55.790Z,58.90
2019-03-13T00:07:27.593Z,58.47
2019-03-13T00:09:59.321Z,58.51
2019-03-13T00:12:31.145Z,58.37
2019-03-13T00:15:02.947Z,58.50
2019-03-13T00:17:35.619Z,58.70
2019-03-13T00:20:07.577Z,58.53
2019-03-13T00:22:39.420Z,58.75
2019-03-13T00:25:11.143Z,58.71
2019-03-13T00:27:43.734Z,59.16
2019-03-13T00:30:16.872Z,58.80
2019-03-13T00:32:48.605Z,59.00
2019-03-13T00:35:20.822Z,58.81
2019-03-13T00:37:52.562Z,58.85
2019-03-13T00:40:24.325Z,58.84
2019-03-13T00:42:56.087Z,59.10
2019-03-13T00:45:28.803Z,59.07
2019-03-13T00:48:00.530Z,58.98
2019-03-13T00:50:32.738Z,59.23
2019-03-13T00:53:04.680Z,59.19
2019-03-13T00:55:36.386Z,59.31
2019-03-13T00:58:08.030Z,58.55
2019-03-13T01:00:50.544Z,59.13
2019-03-13T01:03:56.412Z,58.77
2019-03-13T01:06:31.273Z,58.94
2019-03-13T01:09:04.552Z,59.00
2019-03-13T01:11:37.574Z,58.97
2019-03-13T01:14:09.206Z,58.96
2019-03-13T01:16:40.884Z,58.82
2019-03-13T01:19:12.689Z,59.11
2019-03-13T01:21:44.334Z,59.24
2019-03-13T01:24:16.068Z,58.89
2019-03-13T01:26:47.783Z,58.97
2019-03-13T01:29:19.594Z,58.67
2019-03-13T01:32:07.651Z,58.48
2019-03-13T01:34:45.571Z,58.75
2019-03-13T01:37:17.401Z,58.61
2019-03-13T01:39:49.411Z,58.92
2019-03-13T01:42:21.407Z,58.71
2019-03-13T01:44:53.135Z,58.66
2019-03-13T01:47:24.824Z,58.81
2019-03-13T01:49:56.564Z,58.34
2019-03-13T01:52:28.211Z,58.35
2019-03-13T01:54:59.953Z,58.30
2019-03-13T01:57:31.591Z,58.31
2019-03-13T02:00:03.335Z,58.20
2019-03-13T02:02:35.155Z,57.90
2019-03-13T02:05:07.010Z,57.78
2019-03-13T02:07:38.735Z,57.56
2019-03-13T02:10:10.732Z,57.75
2019-03-13T02:12:42.480Z,57.20
2019-03-13T02:15:14.196Z,57.37
2019-03-13T02:17:45.911Z,57.36
2019-03-13T02:20:17.654Z,57.36
2019-03-13T02:22:49.500Z,56.88
2019-03-13T02:25:21.375Z,56.90
2019-03-13T02:27:53.013Z,56.88
2019-03-13T02:30:25.856Z,56.60
2019-03-13T02:32:57.564Z,56.71
2019-03-13T02:35:29.308Z,56.89
2019-03-13T02:38:00.942Z,56.61
2019-03-13T02:40:32.674Z,57.01
2019-03-13T02:43:04.314Z,56.76
2019-03-13T02:45:36.012Z,56.26
2019-03-13T02:48:07.744Z,56.40
2019-03-13T02:50:39.447Z,56.55
2019-03-13T02:53:11.147Z,56.38
2019-03-13T02:55:42.836Z,56.64
2019-03-13T02:58:14.553Z,56.51
2019-03-13T03:00:57.813Z,56.89
2019-03-13T03:03:32.362Z,56.42
2019-03-13T03:06:04.093Z,56.84
2019-03-13T03:08:35.892Z,56.91
2019-03-13T03:11:07.712Z,57.35
2019-03-13T03:13:39.399Z,57.00
2019-03-13T03:16:11.136Z,57.17
2019-03-13T03:18:42.743Z,56.94
2019-03-13T03:21:14.360Z,56.94
2019-03-13T03:23:45.967Z,56.94
2019-03-13T03:26:17.690Z,56.91
2019-03-13T03:28:49.386Z,56.72
2019-03-13T03:31:21.213Z,56.83
2019-03-13T03:34:05.111Z,56.27
2019-03-13T03:36:36.742Z,56.58
2019-03-13T03:39:08.336Z,56.62
2019-03-13T03:41:41.556Z,55.97
2019-03-13T03:44:13.225Z,55.99
2019-03-13T03:46:44.838Z,55.83
2019-03-13T03:49:16.420Z,56.40
2019-03-13T03:51:48.231Z,55.94
2019-03-13T03:54:19.805Z,56.10
2019-03-13T03:56:51.439Z,56.23
2019-03-13T03:59:23.028Z,55.98
2019-03-13T04:01:54.743Z,56.14
2019-03-13T04:04:26.412Z,56.39
2019-03-13T04:06:58.086Z,55.84
2019-03-13T04:09:29.736Z,55.61
2019-03-13T04:12:01.341Z,55.34
2019-03-13T04:14:32.994Z,55.73
2019-03-13T04:17:04.604Z,55.39
2019-03-13T04:19:36.251Z,55.52
2019-03-13T04:22:07.878Z,54.86
2019-03-13T04:24:39.523Z,55.29
2019-03-13T04:27:11.110Z,55.02
2019-03-13T04:29:43.647Z,54.67
2019-03-13T04:32:15.266Z,54.49
2019-03-13T04:34:46.861Z,54.45
2019-03-13T04:37:18.493Z,54.96
2019-03-13T04:39:50.082Z,54.68
2019-03-13T04:42:21.680Z,54.39
2019-03-13T04:44:53.272Z,54.84
2019-03-13T04:47:25.237Z,55.10
2019-03-13T04:49:56.882Z,56.24
2019-03-13T04:52:28.520Z,56.69
2019-03-13T04:55:00.119Z,56.77
2019-03-13T04:57:32.069Z,57.48
2019-03-13T05:00:03.753Z,58.29
2019-03-13T05:02:36.943Z,58.47
2019-03-13T05:05:09.127Z,59.10
2019-03-13T05:07:40.817Z,60.29
2019-03-13T05:10:12.504Z,60.40
2019-03-13T05:12:44.111Z,60.78
2019-03-13T05:15:15.786Z,60.48
2019-03-13T05:17:47.705Z,60.99
2019-03-13T05:20:19.410Z,61.86
2019-03-13T05:22:51.361Z,62.00
2019-03-13T05:25:23.029Z,60.96
2019-03-13T05:27:55.614Z,61.78
2019-03-13T05:30:28.181Z,61.62
2019-03-13T05:32:59.777Z,62.65
2019-03-13T05:35:31.466Z,61.98
2019-03-13T05:38:03.238Z,63.18
2019-03-13T05:40:34.908Z,63.52
2019-03-13T05:43:06.494Z,65.05
2019-03-13T05:45:38.151Z,66.09
2019-03-13T05:48:09.858Z,67.75
2019-03-13T05:50:42.430Z,68.69
2019-03-13T05:53:14.061Z,68.69
2019-03-13T05:55:45.647Z,72.18
2019-03-13T05:58:17.535Z,72.56
2019-03-13T06:00:49.419Z,72.80
2019-03-13T06:03:21.213Z,73.85
2019-03-13T06:05:52.872Z,73.56
2019-03-13T06:08:24.492Z,73.65
2019-03-13T06:10:56.086Z,74.22
2019-03-13T06:13:27.766Z,75.20
2019-03-13T06:15:59.351Z,74.70
2019-03-13T06:18:30.935Z,75.01
2019-03-13T06:21:02.605Z,74.30
2019-03-13T06:23:34.251Z,75.06
2019-03-13T06:26:05.856Z,74.61
2019-03-13T06:28:37.495Z,75.09
2019-03-13T06:31:09.089Z,75.20
2019-03-13T06:33:40.704Z,75.25
2019-03-13T06:36:12.294Z,75.11
2019-03-13T06:38:43.897Z,75.39
2019-03-13T06:41:15.482Z,75.12
2019-03-13T06:43:47.075Z,74.17
2019-03-13T06:46:18.739Z,74.36
2019-03-13T06:48:50.620Z,73.31
2019-03-13T06:51:22.347Z,73.73
2019-03-13T06:53:53.944Z,72.96
2019-03-13T06:56:25.620Z,73.40
2019-03-13T06:59:02.955Z,73.14
2019-03-13T07:01:59.449Z,74.00
2019-03-13T07:04:48.658Z,74.27
2019-03-13T07:07:39.559Z,74.59
2019-03-13T07:10:32.863Z,74.17
2019-03-13T07:13:32.580Z,73.29
2019-03-13T07:16:19.183Z,72.92
2019-03-13T07:19:09.380Z,73.31
2019-03-13T07:21:57.989Z,72.77
2019-03-13T07:24:47.110Z,73.68
2019-03-13T07:27:37.612Z,73.35
2019-03-13T07:30:25.080Z,72.30
2019-03-13T07:33:05.859Z,72.55
2019-03-13T07:35:59.270Z,72.38
2019-03-13T07:38:40.509Z,72.15
2019-03-13T07:41:35.617Z,72.60
2019-03-13T07:44:26.061Z,71.89
2019-03-13T07:47:22.128Z,72.24
2019-03-13T07:50:33.607Z,72.07
2019-03-13T07:53:24.131Z,72.13
2019-03-13T07:56:20.398Z,71.89
2019-03-13T07:59:08.576Z,71.71
2019-03-13T08:01:56.188Z,72.30
2019-03-13T08:04:45.124Z,72.00
2019-03-13T08:07:35.687Z,71.88
2019-03-13T08:10:31.318Z,69.75
2019-03-13T08:13:20.167Z,70.74
2019-03-13T08:16:10.738Z,69.87
2019-03-13T08:18:50.594Z,69.77
2019-03-13T08:21:59.495Z,70.15
2019-03-13T08:24:44.580Z,69.16
2019-03-13T08:27:29.555Z,67.05
2019-03-13T08:30:20.660Z,67.91
2019-03-13T08:33:15.557Z,67.41
2019-03-13T08:35:58.001Z,65.87
2019-03-13T08:38:57.688Z,65.48
2019-03-13T08:41:54.689Z,65.98
2019-03-13T08:45:00.412Z,66.05
2019-03-13T08:47:46.812Z,64.58
2019-03-13T08:50:40.498Z,65.22
2019-03-13T08:53:46.898Z,63.36
2019-03-13T08:56:31.519Z,62.92
2019-03-13T08:59:23.429Z,59.73
2019-03-13T09:02:04.415Z,57.71
2019-03-13T09:04:51.228Z,57.62
2019-03-13T09:07:44.890Z,55.92
2019-03-13T09:10:38.227Z,57.29
2019-03-13T09:13:28.791Z,56.39
2019-03-13T09:16:25.436Z,54.73
2019-03-13T09:19:09.254Z,54.20
2019-03-13T09:22:02.606Z,51.85
2019-03-13T09:25:11.681Z,50.62
2019-03-13T09:27:52.598Z,51.77
2019-03-13T09:30:49.267Z,51.72
2019-03-13T09:33:46.068Z,51.15
2019-03-13T09:36:36.239Z,52.54
2019-03-13T09:39:26.408Z,51.73
2019-03-13T09:42:22.618Z,52.97
2019-03-13T09:45:13.270Z,53.43
2019-03-13T09:48:03.833Z,53.09
2019-03-13T09:50:42.347Z,52.90
2019-03-13T09:53:18.899Z,52.79
2019-03-13T09:56:16.570Z,54.44
2019-03-13T09:59:07.138Z,53.42
2019-03-13T10:02:12.524Z,53.70
2019-03-13T10:05:01.603Z,52.43
2019-03-13T10:07:50.679Z,51.33
2019-03-13T10:10:35.295Z,49.04
2019-03-13T10:13:37.708Z,47.64
2019-03-13T10:16:28.216Z,47.59
2019-03-13T10:19:06.004Z,47.57
2019-03-13T10:21:52.986Z,47.25
2019-03-13T10:24:32.432Z,47.33
2019-03-13T10:27:22.926Z,46.42
2019-03-13T10:30:03.552Z,48.20
2019-03-13T10:32:54.196Z,48.22
2019-03-13T10:35:43.433Z,48.87
2019-03-13T10:38:22.070Z,47.55
2019-03-13T10:41:15.450Z,49.27
2019-03-13T10:44:08.798Z,48.89
2019-03-13T10:46:49.963Z,47.81
2019-03-13T10:49:46.555Z,49.62
2019-03-13T10:52:24.845Z,47.23
2019-03-13T10:55:24.361Z,48.16
2019-03-13T10:58:21.251Z,48.13
2019-03-13T11:01:16.866Z,47.68
2019-03-13T11:04:07.493Z,49.36
2019-03-13T11:06:56.479Z,48.40
2019-03-13T11:09:41.958Z,47.63
2019-03-13T11:12:41.286Z,46.89
2019-03-13T11:15:19.693Z,46.01
2019-03-13T11:18:22.582Z,45.41
2019-03-13T11:21:19.337Z,45.67
2019-03-13T11:24:09.914Z,46.47
2019-03-13T11:27:06.613Z,45.84
2019-03-13T11:29:44.240Z,46.48
2019-03-13T11:32:43.576Z,46.32
2019-03-13T11:35:24.678Z,47.03
2019-03-13T11:38:24.056Z,45.87
2019-03-13T11:41:05.381Z,44.60
2019-03-13T11:43:46.579Z,45.95
2019-03-13T11:46:37.143Z,45.09
2019-03-13T11:49:29.678Z,42.90
2019-03-13T11:52:38.532Z,44.59
2019-03-13T11:55:34.497Z,42.71
2019-03-13T11:58:14.048Z,40.23
2019-03-13T12:01:10.713Z,42.14
2019-03-13T12:04:00.976Z,40.88
2019-03-13T12:06:54.642Z,41.42
2019-03-13T12:09:34.163Z,41.34
2019-03-13T12:12:33.674Z,40.63
2019-03-13T12:15:24.346Z,42.64
2019-03-13T12:18:23.778Z,42.17
2019-03-13T12:21:32.650Z,42.82
2019-03-13T12:24:21.583Z,41.84
2019-03-13T12:27:10.810Z,41.85
2019-03-13T12:30:16.246Z,42.81
2019-03-13T12:33:09.469Z,42.42
2019-03-13T12:36:03.048Z,42.39
2019-03-13T12:38:59.736Z,43.01
2019-03-13T12:41:46.395Z,44.26
2019-03-13T12:44:39.854Z,43.79
2019-03-13T12:47:30.359Z,43.19
2019-03-13T12:50:36.026Z,44.26
2019-03-13T12:53:22.525Z,42.62
2019-03-13T12:56:11.661Z,41.22
2019-03-13T12:58:50.640Z,41.64
2019-03-13T13:01:34.155Z,41.10
2019-03-13T13:04:37.067Z,41.64
2019-03-13T13:07:29.887Z,42.24
2019-03-13T13:10:35.510Z,42.04
2019-03-13T13:13:24.463Z,42.33
2019-03-13T13:16:13.552Z,42.03
2019-03-13T13:18:54.231Z,39.72
2019-03-13T13:21:26.795Z,40.22
2019-03-13T13:23:58.409Z,39.76
2019-03-13T13:26:30.000Z,39.40
2019-03-13T13:29:01.597Z,39.35
2019-03-13T13:31:33.252Z,39.98
2019-03-13T13:34:04.842Z,38.22
2019-03-13T13:36:36.506Z,38.50
2019-03-13T13:39:08.879Z,38.53
2019-03-13T13:41:42.008Z,38.28
2019-03-13T13:44:13.611Z,37.86
2019-03-13T13:46:45.621Z,38.58
2019-03-13T13:49:17.753Z,39.71
2019-03-13T13:51:49.462Z,38.49
2019-03-13T13:54:21.319Z,37.95
2019-03-13T13:56:53.007Z,37.63
2019-03-13T13:59:24.710Z,38.61
2019-03-13T14:01:56.411Z,37.64
2019-03-13T14:04:28.079Z,37.79
2019-03-13T14:06:59.680Z,37.89
2019-03-13T14:09:31.389Z,37.78
2019-03-13T14:12:02.982Z,37.59
2019-03-13T14:14:34.569Z,37.69
2019-03-13T14:17:06.318Z,38.66
2019-03-13T14:19:37.984Z,37.73
2019-03-13T14:22:09.652Z,37.84
2019-03-13T14:24:41.312Z,37.80
2019-03-13T14:27:14.819Z,38.40
2019-03-13T14:29:47.366Z,39.15
2019-03-13T14:32:19.445Z,38.72
2019-03-13T14:34:51.375Z,37.79
2019-03-13T14:37:22.984Z,37.98
2019-03-13T14:39:54.661Z,37.88
2019-03-13T14:42:27.260Z,38.41
2019-03-13T14:44:58.926Z,38.77
2019-03-13T14:47:30.525Z,37.50
2019-03-13T14:50:02.148Z,37.10
2019-03-13T14:52:33.817Z,38.19
2019-03-13T14:55:05.838Z,38.60
2019-03-13T14:57:38.567Z,38.78
2019-03-13T15:00:13.398Z,38.53
2019-03-13T15:02:45.059Z,39.25
2019-03-13T15:05:16.755Z,38.55
2019-03-13T15:07:48.714Z,37.82
2019-03-13T15:10:22.019Z,37.50
2019-03-13T15:12:53.776Z,37.64
2019-03-13T15:15:25.564Z,38.34
2019-03-13T15:17:57.129Z,37.75
2019-03-13T15:20:28.840Z,38.38
2019-03-13T15:23:00.707Z,38.20
2019-03-13T15:25:32.503Z,39.49
2019-03-13T15:28:04.173Z,39.64
2019-03-13T15:30:35.888Z,38.93
2019-03-13T15:33:07.575Z,39.01
2019-03-13T15:35:39.249Z,39.40
2019-03-13T15:38:10.930Z,38.16
2019-03-13T15:40:42.541Z,38.83
2019-03-13T15:43:14.199Z,39.45
2019-03-13T15:45:45.892Z,39.79
2019-03-13T15:48:17.681Z,39.90
2019-03-13T15:50:49.590Z,40.35
2019-03-13T15:53:21.483Z,40.32
2019-03-13T15:55:53.090Z,41.40
2019-03-13T15:58:24.888Z,40.90
2019-03-13T16:00:56.486Z,40.61
2019-03-13T16:03:28.177Z,40.03
2019-03-13T16:05:59.875Z,41.16
2019-03-13T16:08:31.584Z,41.08
2019-03-13T16:11:03.190Z,41.59
2019-03-13T16:13:34.875Z,41.71
2019-03-13T16:16:06.609Z,41.38
2019-03-13T16:18:38.257Z,41.86
2019-03-13T16:21:09.875Z,42.35
2019-03-13T16:23:41.545Z,42.26
2019-03-13T16:26:13.164Z,42.15
2019-03-13T16:28:44.840Z,42.60
2019-03-13T16:31:16.575Z,43.04
2019-03-13T16:33:48.375Z,43.13
2019-03-13T16:36:19.987Z,43.14
2019-03-13T16:38:51.602Z,43.38
2019-03-13T16:41:23.254Z,43.53
2019-03-13T16:43:54.925Z,43.78
2019-03-13T16:46:26.725Z,43.70
2019-03-13T16:48:58.322Z,44.16
2019-03-13T16:51:29.996Z,44.58
2019-03-13T16:54:01.686Z,44.39
2019-03-13T16:56:33.469Z,44.75
2019-03-13T16:59:06.169Z,44.63
2019-03-13T17:01:37.822Z,44.54
2019-03-13T17:04:09.594Z,44.73
2019-03-13T17:06:41.291Z,44.41
2019-03-13T17:09:12.955Z,44.78
2019-03-13T17:11:44.854Z,44.64
2019-03-13T17:14:16.557Z,44.53
2019-03-13T17:16:48.406Z,44.78
2019-03-13T17:19:20.076Z,44.81
2019-03-13T17:21:51.695Z,44.79
2019-03-13T17:24:23.310Z,44.81
2019-03-13T17:26:55.007Z,44.76
2019-03-13T17:29:26.684Z,44.94
2019-03-13T17:31:58.398Z,44.35
2019-03-13T17:34:30.532Z,44.42
2019-03-13T17:37:02.229Z,44.51
2019-03-13T17:39:34.171Z,44.58
2019-03-13T17:42:05.796Z,44.36
2019-03-13T17:44:37.398Z,44.96
2019-03-13T17:47:08.993Z,44.74
2019-03-13T17:49:40.599Z,44.67
2019-03-13T17:52:12.207Z,44.58
2019-03-13T17:54:43.868Z,44.45
2019-03-13T17:57:15.561Z,45.04
2019-03-13T17:59:47.205Z,45.21
2019-03-13T18:02:18.897Z,45.79
2019-03-13T18:04:50.608Z,46.01
2019-03-13T18:07:22.420Z,46.11
2019-03-13T18:09:54.092Z,46.29
2019-03-13T18:12:25.749Z,46.46
2019-03-13T18:14:57.413Z,46.80
2019-03-13T18:17:29.255Z,46.55
2019-03-13T18:20:00.903Z,47.16
2019-03-13T18:22:32.670Z,47.18
2019-03-13T18:25:04.534Z,47.22
2019-03-13T18:27:36.288Z,47.22
2019-03-13T18:30:11.680Z,47.22
2019-03-13T18:32:43.352Z,47.70
2019-03-13T18:35:15.027Z,47.58
2019-03-13T18:37:46.716Z,47.68
2019-03-13T18:40:18.498Z,48.38
2019-03-13T18:42:50.290Z,48.19
2019-03-13T18:45:23.717Z,48.45
2019-03-13T18:47:55.437Z,48.15
2019-03-13T18:50:27.191Z,47.71
2019-03-13T18:52:58.860Z,48.15
2019-03-13T18:55:30.550Z,48.04
2019-03-13T18:58:02.357Z,47.44
2019-03-13T19:00:34.290Z,47.86
2019-03-13T19:03:06.103Z,47.56
2019-03-13T19:05:37.858Z,48.01
2019-03-13T19:08:09.560Z,47.78
2019-03-13T19:10:44.822Z,47.58
2019-03-13T19:13:19.818Z,46.99
2019-03-13T19:15:52.122Z,47.63
2019-03-13T19:18:25.111Z,47.65
2019-03-13T19:20:58.587Z,48.17
2019-03-13T19:23:30.904Z,48.38
2019-03-13T19:26:03.100Z,47.90
2019-03-13T19:28:35.076Z,48.06
2019-03-13T19:31:06.845Z,47.82
2019-03-13T19:33:39.187Z,47.80
2019-03-13T19:36:10.992Z,48.28
2019-03-13T19:38:42.891Z,48.51
2019-03-13T19:41:14.675Z,48.19
2019-03-13T19:43:46.459Z,48.19
2019-03-13T19:46:18.394Z,48.64
2019-03-13T19:48:52.876Z,48.26
2019-03-13T19:51:24.706Z,48.12
2019-03-13T19:53:56.475Z,48.18
2019-03-13T19:56:29.553Z,48.16
2019-03-13T19:59:03.077Z,48.51
2019-03-13T20:01:35.646Z,48.18
2019-03-13T20:04:07.556Z,48.47
2019-03-13T20:06:42.493Z,47.90
2019-03-13T20:09:13.507Z,48.14
2019-03-13T20:11:46.872Z,47.85
2019-03-13T20:14:19.212Z,47.71
2019-03-13T20:16:50.963Z,46.99
2019-03-13T20:19:23.869Z,47.26
2019-03-13T20:21:55.548Z,47.34
2019-03-13T20:24:27.368Z,47.11
2019-03-13T20:26:59.102Z,46.91
2019-03-13T20:29:33.692Z,46.76
2019-03-13T20:32:05.415Z,46.75
2019-03-13T20:34:37.138Z,46.60
2019-03-13T20:37:08.848Z,46.62
2019-03-13T20:39:40.582Z,46.20
2019-03-13T20:42:12.350Z,46.24
2019-03-13T20:44:44.127Z,46.20
2019-03-13T20:47:15.859Z,46.13
2019-03-13T20:49:47.596Z,46.30
2019-03-13T20:52:20.554Z,46.43
2019-03-13T20:54:52.380Z,46.51
2019-03-13T20:57:24.097Z,46.58
2019-03-13T20:59:55.912Z,46.65
2019-03-13T21:02:27.802Z,46.74
2019-03-13T21:04:59.474Z,46.99
2019-03-13T21:07:31.147Z,46.94
2019-03-13T21:10:02.829Z,47.13
2019-03-13T21:12:34.897Z,47.05
2019-03-13T21:15:07.856Z,47.08
2019-03-13T21:17:39.819Z,47.15
2019-03-13T21:20:12.555Z,47.52
2019-03-13T21:22:44.239Z,47.05
2019-03-13T21:25:17.000Z,47.73
2019-03-13T21:27:48.680Z,47.94
2019-03-13T21:30:22.834Z,47.70
2019-03-13T21:32:54.585Z,47.43
2019-03-13T21:35:26.269Z,47.50
2019-03-13T21:37:57.914Z,47.36
2019-03-13T21:40:32.433Z,47.81
2019-03-13T21:43:03.967Z,47.87
2019-03-13T21:45:40.990Z,47.58
2019-03-13T21:48:09.393Z,47.45
2019-03-13T21:50:41.033Z,47.55
2019-03-13T21:53:12.740Z,47.24
2019-03-13T21:55:44.407Z,47.69
2019-03-13T21:58:16.464Z,47.08
2019-03-13T22:00:48.661Z,47.26
2019-03-13T22:03:28.737Z,47.33
2019-03-13T22:05:53.748Z,47.19
2019-03-13T22:08:25.429Z,46.83
2019-03-13T22:10:57.094Z,46.83
2019-03-13T22:13:28.801Z,47.23
2019-03-13T22:16:00.638Z,47.26
2019-03-13T22:18:32.345Z,47.00
2019-03-13T22:21:05.322Z,46.53
2019-03-13T22:23:37.538Z,46.43
2019-03-13T22:26:10.599Z,46.58
2019-03-13T22:28:46.443Z,46.44
2019-03-13T22:31:22.272Z,46.52
2019-03-13T22:34:01.315Z,46.39
2019-03-13T22:36:46.074Z,46.29
2019-03-13T22:39:20.253Z,46.26
2019-03-13T22:41:56.993Z,46.48
2019-03-13T22:44:32.126Z,46.35
2019-03-13T22:47:09.383Z,46.72
2019-03-13T22:49:49.536Z,46.80
2019-03-13T22:52:26.526Z,46.52
2019-03-13T22:55:00.667Z,47.40
2019-03-13T22:57:38.328Z,47.24
2019-03-13T23:00:49.821Z,46.99
2019-03-13T23:03:27.319Z,47.28
2019-03-13T23:06:02.042Z,47.33
2019-03-13T23:08:40.432Z,47.72
2019-03-13T23:11:19.430Z,47.15
2019-03-13T23:13:57.664Z,47.46
2019-03-13T23:16:34.282Z,47.65
2019-03-13T23:19:28.684Z,47.86
2019-03-13T23:22:07.970Z,47.95
2019-03-13T23:24:45.606Z,48.42
2019-03-13T23:27:21.538Z,48.46
2019-03-13T23:29:58.038Z,48.21
2019-03-13T23:32:36.161Z,48.31
2019-03-13T23:35:15.290Z,48.51
2019-03-13T23:37:52.235Z,48.52
2019-03-13T23:40:26.117Z,48.76
2019-03-13T23:43:00.285Z,48.82
2019-03-13T23:45:34.426Z,48.70
2019-03-13T23:48:11.613Z,48.79
2019-03-13T23:50:47.115Z,49.10
2019-03-13T23:53:23.370Z,49.17
2019-03-13T23:56:00.654Z,49.18
2019-03-13T23:58:35.637Z,49.10
